createdAt,value
2018-09-13T00:00:49.987Z,98269.29
2018-09-13T00:03:18.902Z,98276.70
2018-09-13T00:05:47.858Z,98279.32
2018-09-13T00:08:16.724Z,98284.34
2018-09-13T00:10:45.672Z,98282.16
2018-09-13T00:13:14.376Z,98282.06
2018-09-13T00:15:43.352Z,98271.57
2018-09-13T00:18:12.813Z,98266.98
2018-09-13T00:20:41.828Z,98260.84
2018-09-13T00:23:10.572Z,98260.73
2018-09-13T00:25:39.281Z,98258.22
2018-09-13T00:28:08.219Z,98251.95
2018-09-13T00:30:37.735Z,98247.59
2018-09-13T00:33:07.034Z,98251.60
2018-09-13T00:35:36.218Z,98249.54
2018-09-13T00:38:05.404Z,98250.56
2018-09-13T00:40:34.563Z,98254.92
2018-09-13T00:43:03.583Z,98260.71
2018-09-13T00:45:32.377Z,98260.61
2018-09-13T00:48:02.313Z,98261.88
2018-09-13T00:50:32.302Z,98264.02
2018-09-13T00:53:01.159Z,98274.61
2018-09-13T00:55:30.112Z,98269.94
2018-09-13T00:57:58.787Z,98273.31
2018-09-13T01:00:27.486Z,98273.52
2018-09-13T01:02:56.616Z,98279.23
2018-09-13T01:05:26.263Z,98285.61
2018-09-13T01:07:55.098Z,98293.09
2018-09-13T01:10:23.951Z,98294.42
2018-09-13T01:12:52.928Z,98300.80
2018-09-13T01:15:21.853Z,98305.36
2018-09-13T01:17:51.083Z,98299.88
2018-09-13T01:20:20.077Z,98297.83
2018-09-13T01:22:49.461Z,98294.84
2018-09-13T01:25:18.829Z,98290.95
2018-09-13T01:27:47.849Z,98291.86
2018-09-13T01:30:17.071Z,98287.30
2018-09-13T01:32:46.337Z,98276.16
2018-09-13T01:35:15.797Z,98265.53
2018-09-13T01:37:44.857Z,98274.50
2018-09-13T01:40:13.934Z,98277.68
2018-09-13T01:42:43.378Z,98277.68
2018-09-13T01:45:12.279Z,98275.66
2018-09-13T01:47:41.109Z,98269.77
2018-09-13T01:50:09.895Z,98266.77
2018-09-13T01:52:39.012Z,98266.77
2018-09-13T01:55:09.299Z,98264.04
2018-09-13T01:57:38.563Z,98258.98
2018-09-13T02:00:08.728Z,98266.52
2018-09-13T02:02:37.950Z,98268.66
2018-09-13T02:05:07.190Z,98266.25
2018-09-13T02:07:36.814Z,98259.64
2018-09-13T02:10:06.053Z,98253.72
2018-09-13T02:12:34.888Z,98258.21
2018-09-13T02:15:03.729Z,98264.02
2018-09-13T02:17:33.328Z,98263.45
2018-09-13T02:20:02.533Z,98257.72
2018-09-13T02:22:31.863Z,98258.36
2018-09-13T02:25:00.512Z,98255.88
2018-09-13T02:27:29.256Z,98251.20
2018-09-13T02:29:58.618Z,98253.55
2018-09-13T02:32:28.584Z,98257.13
2018-09-13T02:34:57.843Z,98249.96
2018-09-13T02:37:26.814Z,98252.97
2018-09-13T02:39:56.294Z,98258.58
2018-09-13T02:42:25.339Z,98266.48
2018-09-13T02:44:54.880Z,98272.80
2018-09-13T02:47:23.698Z,98263.17
2018-09-13T02:49:52.358Z,98258.22
2018-09-13T02:52:21.344Z,98254.78
2018-09-13T02:54:49.962Z,98255.53
2018-09-13T02:57:20.002Z,98257.72
2018-09-13T02:59:49.228Z,98255.37
2018-09-13T03:02:18.277Z,98253.25
2018-09-13T03:04:47.183Z,98252.70
2018-09-13T03:07:16.500Z,98240.22
2018-09-13T03:09:45.131Z,98233.02
2018-09-13T03:12:13.884Z,98233.14
2018-09-13T03:14:43.073Z,98225.17
2018-09-13T03:17:11.824Z,98227.91
2018-09-13T03:19:40.999Z,98228.80
2018-09-13T03:22:09.743Z,98237.02
2018-09-13T03:24:38.424Z,98231.09
2018-09-13T03:27:07.579Z,98229.44
2018-09-13T03:29:36.755Z,98237.62
2018-09-13T03:32:05.787Z,98241.44
2018-09-13T03:34:35.485Z,98246.55
2018-09-13T03:37:04.958Z,98246.78
2018-09-13T03:39:33.788Z,98259.30
2018-09-13T03:42:02.872Z,98261.47
2018-09-13T03:44:31.519Z,98262.95
2018-09-13T03:47:00.454Z,98264.05
2018-09-13T03:49:29.370Z,98267.89
2018-09-13T03:51:58.100Z,98259.52
2018-09-13T03:54:27.091Z,98266.25
2018-09-13T03:56:56.308Z,98275.91
2018-09-13T03:59:25.208Z,98274.77
2018-09-13T04:01:53.917Z,98274.77
2018-09-13T04:04:22.760Z,98265.69
2018-09-13T04:06:51.675Z,98258.23
2018-09-13T04:09:20.492Z,98250.19
2018-09-13T04:11:51.355Z,98248.87
2018-09-13T04:14:21.083Z,98245.75
2018-09-13T04:16:50.095Z,98237.83
2018-09-13T04:19:19.133Z,98242.39
2018-09-13T04:21:47.890Z,98232.63
2018-09-13T04:24:17.029Z,98232.16
2018-09-13T04:26:47.038Z,98234.80
2018-09-13T04:29:16.240Z,98228.91
2018-09-13T04:31:45.158Z,98242.67
2018-09-13T04:34:13.979Z,98242.81
2018-09-13T04:36:42.879Z,98238.30
2018-09-13T04:39:12.085Z,98224.19
2018-09-13T04:41:41.023Z,98218.18
2018-09-13T04:44:10.508Z,98215.79
2018-09-13T04:46:40.042Z,98221.38
2018-09-13T04:49:09.461Z,98219.96
2018-09-13T04:51:38.252Z,98221.14
2018-09-13T04:54:07.489Z,98219.78
2018-09-13T04:56:36.318Z,98228.05
2018-09-13T04:59:05.401Z,98235.68
2018-09-13T05:01:34.285Z,98244.80
2018-09-13T05:04:03.081Z,98240.61
2018-09-13T05:06:31.912Z,98245.30
2018-09-13T05:09:01.078Z,98241.37
2018-09-13T05:11:30.070Z,98238.02
2018-09-13T05:13:59.571Z,98229.92
2018-09-13T05:16:28.587Z,98229.40
2018-09-13T05:18:57.769Z,98228.09
2018-09-13T05:21:26.950Z,98226.30
2018-09-13T05:23:56.175Z,98228.34
2018-09-13T05:26:25.479Z,98225.52
2018-09-13T05:28:54.668Z,98215.29
2018-09-13T05:31:23.659Z,98223.72
2018-09-13T05:33:52.310Z,98217.52
2018-09-13T05:36:21.306Z,98216.37
2018-09-13T05:38:50.638Z,98214.25
2018-09-13T05:41:19.751Z,98211.45
2018-09-13T05:43:48.745Z,98207.31
2018-09-13T05:46:18.872Z,98205.41
2018-09-13T05:48:47.567Z,98208.40
2018-09-13T05:51:16.684Z,98203.97
2018-09-13T05:53:46.079Z,98208.79
2018-09-13T05:56:15.091Z,98220.89
2018-09-13T05:58:44.004Z,98222.98
2018-09-13T06:01:13.673Z,98231.07
2018-09-13T06:03:43.685Z,98233.56
2018-09-13T06:06:12.909Z,98222.63
2018-09-13T06:08:41.835Z,98223.13
2018-09-13T06:11:10.688Z,98230.18
2018-09-13T06:13:39.902Z,98234.53
2018-09-13T06:16:08.989Z,98245.46
2018-09-13T06:18:39.119Z,98251.84
2018-09-13T06:21:08.356Z,98239.34
2018-09-13T06:23:38.144Z,98232.05
2018-09-13T06:26:08.030Z,98237.78
2018-09-13T06:28:36.848Z,98242.59
2018-09-13T06:31:06.170Z,98241.22
2018-09-13T06:33:35.036Z,98237.00
2018-09-13T06:36:03.676Z,98233.23
2018-09-13T06:38:32.689Z,98227.78
2018-09-13T06:41:02.086Z,98229.38
2018-09-13T06:43:31.314Z,98230.83
2018-09-13T06:46:00.600Z,98227.75
2018-09-13T06:48:29.968Z,98230.11
2018-09-13T06:50:59.054Z,98229.84
2018-09-13T06:53:28.221Z,98234.50
2018-09-13T06:55:57.487Z,98226.28
2018-09-13T06:58:26.700Z,98227.83
2018-09-13T07:00:56.124Z,98230.70
2018-09-13T07:03:25.076Z,98227.19
2018-09-13T07:05:55.116Z,98223.92
2018-09-13T07:08:24.576Z,98228.89
2018-09-13T07:10:53.379Z,98233.37
2018-09-13T07:13:22.125Z,98238.33
2018-09-13T07:15:50.911Z,98240.70
2018-09-13T07:18:19.736Z,98243.95
2018-09-13T07:20:49.521Z,98255.81
2018-09-13T07:23:18.979Z,98243.84
2018-09-13T07:25:48.159Z,98246.69
2018-09-13T07:28:16.925Z,98247.86
2018-09-13T07:30:46.802Z,98247.89
2018-09-13T07:33:15.739Z,98254.56
2018-09-13T07:35:44.982Z,98252.65
2018-09-13T07:38:14.174Z,98251.48
2018-09-13T07:40:43.320Z,98252.95
2018-09-13T07:43:12.646Z,98252.48
2018-09-13T07:45:41.996Z,98246.61
2018-09-13T07:48:11.024Z,98255.13
2018-09-13T07:50:39.890Z,98251.77
2018-09-13T07:53:09.526Z,98262.27
2018-09-13T07:55:39.066Z,98266.39
2018-09-13T07:58:07.873Z,98263.91
2018-09-13T08:00:37.201Z,98261.24
2018-09-13T08:03:06.260Z,98257.68
2018-09-13T08:05:35.321Z,98259.19
2018-09-13T08:08:04.814Z,98255.72
2018-09-13T08:10:34.195Z,98258.52
2018-09-13T08:13:03.856Z,98263.05
2018-09-13T08:15:32.581Z,98269.77
2018-09-13T08:18:02.020Z,98270.26
2018-09-13T08:20:30.872Z,98265.41
2018-09-13T08:23:00.299Z,98264.05
2018-09-13T08:25:29.418Z,98273.27
2018-09-13T08:27:58.229Z,98271.75
2018-09-13T08:30:27.179Z,98262.70
2018-09-13T08:32:56.102Z,98263.37
2018-09-13T08:35:25.953Z,98266.11
2018-09-13T08:37:55.419Z,98265.63
2018-09-13T08:40:24.586Z,98268.83
2018-09-13T08:42:53.293Z,98269.02
2018-09-13T08:45:22.171Z,98265.25
2018-09-13T08:47:51.110Z,98268.58
2018-09-13T08:50:20.724Z,98272.97
2018-09-13T08:52:49.902Z,98263.43
2018-09-13T08:55:19.327Z,98279.42
2018-09-13T08:57:48.222Z,98276.09
2018-09-13T09:00:17.547Z,98282.10
2018-09-13T09:02:46.556Z,98277.38
2018-09-13T09:05:15.182Z,98279.41
2018-09-13T09:07:44.290Z,98283.42
2018-09-13T09:10:13.201Z,98279.48
2018-09-13T09:12:42.005Z,98283.55
2018-09-13T09:15:10.955Z,98280.89
2018-09-13T09:17:40.095Z,98285.51
2018-09-13T09:20:09.256Z,98277.99
2018-09-13T09:22:38.512Z,98282.66
2018-09-13T09:25:07.812Z,98283.00
2018-09-13T09:27:36.720Z,98285.30
2018-09-13T09:30:06.274Z,98287.78
2018-09-13T09:32:35.176Z,98277.52
2018-09-13T09:35:04.312Z,98285.56
2018-09-13T09:37:33.165Z,98284.51
2018-09-13T09:40:02.360Z,98282.75
2018-09-13T09:42:31.353Z,98280.40
2018-09-13T09:45:00.260Z,98281.62
2018-09-13T09:47:29.091Z,98281.88
2018-09-13T09:49:58.002Z,98285.20
2018-09-13T09:52:27.451Z,98280.58
2018-09-13T09:54:58.115Z,98283.52
2018-09-13T09:57:27.668Z,98278.91
2018-09-13T09:59:56.617Z,98276.92
2018-09-13T10:02:26.397Z,98271.56
2018-09-13T10:04:55.410Z,98276.34
2018-09-13T10:07:24.915Z,98270.81
2018-09-13T10:09:53.791Z,98269.02
2018-09-13T10:12:22.876Z,98267.24
2018-09-13T10:14:56.807Z,98271.97
2018-09-13T10:18:34.590Z,98277.53
2018-09-13T10:21:08.613Z,98274.77
2018-09-13T10:23:42.764Z,98273.14
2018-09-13T10:26:16.952Z,98273.70
2018-09-13T10:28:50.911Z,98285.69
2018-09-13T10:31:25.021Z,98277.47
2018-09-13T10:33:59.486Z,98277.05
2018-09-13T10:36:33.706Z,98277.55
2018-09-13T10:39:07.442Z,98280.23
2018-09-13T10:42:39.711Z,98282.88
2018-09-13T10:45:14.170Z,98275.00
2018-09-13T10:47:56.490Z,98279.64
2018-09-13T10:50:24.955Z,98282.67
2018-09-13T10:52:58.949Z,98281.59
2018-09-13T10:55:29.777Z,98285.34
2018-09-13T10:57:58.828Z,98278.99
2018-09-13T11:00:28.064Z,98294.31
2018-09-13T11:02:57.286Z,98296.78
2018-09-13T11:05:26.428Z,98291.30
2018-09-13T11:07:55.572Z,98287.89
2018-09-13T11:10:24.739Z,98287.73
2018-09-13T11:12:56.077Z,98284.51
2018-09-13T11:15:30.876Z,98278.23
2018-09-13T11:17:59.776Z,98278.98
2018-09-13T11:20:28.788Z,98272.41
2018-09-13T11:22:57.602Z,98280.75
2018-09-13T11:25:26.349Z,98281.10
2018-09-13T11:27:55.876Z,98287.23
2018-09-13T11:30:26.937Z,98281.13
2018-09-13T11:32:55.722Z,98272.81
2018-09-13T11:35:25.893Z,98269.88
2018-09-13T11:37:55.500Z,98266.08
2018-09-13T11:40:24.497Z,98272.55
2018-09-13T11:42:53.514Z,98268.32
2018-09-13T11:45:22.735Z,98263.95
2018-09-13T11:47:51.987Z,98264.50
2018-09-13T11:50:21.133Z,98262.80
2018-09-13T11:52:50.322Z,98261.69
2018-09-13T11:55:19.497Z,98257.32
2018-09-13T11:57:48.411Z,98260.98
2018-09-13T12:00:18.110Z,98248.61
2018-09-13T12:02:46.983Z,98257.34
2018-09-13T12:05:15.903Z,98252.98
2018-09-13T12:07:44.848Z,98245.58
2018-09-13T12:10:13.984Z,98241.11
2018-09-13T12:12:43.918Z,98244.55
2018-09-13T12:15:12.753Z,98247.63
2018-09-13T12:17:41.746Z,98248.19
2018-09-13T12:20:10.823Z,98237.42
2018-09-13T12:22:39.966Z,98240.11
2018-09-13T12:25:09.382Z,98235.25
2018-09-13T12:27:38.573Z,98235.44
2018-09-13T12:30:08.231Z,98229.41
2018-09-13T12:32:37.347Z,98222.80
2018-09-13T12:35:06.856Z,98221.70
2018-09-13T12:37:36.593Z,98218.94
2018-09-13T12:40:06.518Z,98214.84
2018-09-13T12:42:35.743Z,98212.64
2018-09-13T12:45:05.048Z,98210.88
2018-09-13T12:47:34.314Z,98209.48
2018-09-13T12:50:03.804Z,98206.47
2018-09-13T12:52:32.838Z,98205.17
2018-09-13T12:55:01.608Z,98200.12
2018-09-13T12:57:31.128Z,98198.92
2018-09-13T13:00:06.661Z,98202.55
2018-09-13T13:02:35.475Z,98197.52
2018-09-13T13:05:04.622Z,98198.08
2018-09-13T13:07:33.558Z,98207.30
2018-09-13T13:10:02.339Z,98205.43
2018-09-13T13:12:31.396Z,98201.20
2018-09-13T13:15:00.691Z,98197.34
2018-09-13T13:17:29.704Z,98196.75
2018-09-13T13:19:59.282Z,98190.77
2018-09-13T13:22:28.310Z,98202.09
2018-09-13T13:24:57.104Z,98194.95
2018-09-13T13:27:26.208Z,98197.66
2018-09-13T13:29:54.966Z,98193.34
2018-09-13T13:32:24.084Z,98190.91
2018-09-13T13:34:53.608Z,98184.27
2018-09-13T13:37:22.759Z,98193.47
2018-09-13T13:39:51.857Z,98185.41
2018-09-13T13:42:21.087Z,98177.96
2018-09-13T13:44:50.573Z,98182.46
2018-09-13T13:47:19.652Z,98182.25
2018-09-13T13:49:48.608Z,98184.41
2018-09-13T13:52:17.657Z,98183.20
2018-09-13T13:54:46.512Z,98175.67
2018-09-13T13:57:15.383Z,98175.20
2018-09-13T13:59:44.394Z,98171.30
2018-09-13T14:02:13.919Z,98170.91
2018-09-13T14:04:43.093Z,98169.63
2018-09-13T14:07:11.846Z,98175.42
2018-09-13T14:09:40.838Z,98173.27
2018-09-13T14:12:10.438Z,98166.95
2018-09-13T14:14:39.602Z,98164.40
2018-09-13T14:17:09.100Z,98163.30
2018-09-13T14:19:38.411Z,98163.66
2018-09-13T14:22:07.672Z,98164.81
2018-09-13T14:24:36.842Z,98158.32
2018-09-13T14:27:06.087Z,98156.56
2018-09-13T14:29:36.353Z,98144.78
2018-09-13T14:32:05.736Z,98138.45
2018-09-13T14:34:35.462Z,98141.97
2018-09-13T14:37:05.252Z,98140.73
2018-09-13T14:39:34.132Z,98142.30
2018-09-13T14:42:03.083Z,98143.75
2018-09-13T14:44:31.794Z,98135.13
2018-09-13T14:47:01.966Z,98151.09
2018-09-13T14:49:30.995Z,98145.86
2018-09-13T14:52:00.468Z,98143.50
2018-09-13T14:54:29.637Z,98147.77
2018-09-13T14:56:58.779Z,98153.34
2018-09-13T14:59:27.893Z,98153.31
2018-09-13T15:01:57.242Z,98155.27
2018-09-13T15:04:26.629Z,98152.42
2018-09-13T15:06:55.718Z,98157.30
2018-09-13T15:09:24.456Z,98159.66
2018-09-13T15:11:53.649Z,98165.39
2018-09-13T15:14:23.359Z,98158.98
2018-09-13T15:16:52.444Z,98166.92
2018-09-13T15:19:21.693Z,98170.91
2018-09-13T15:21:52.132Z,98177.70
2018-09-13T15:24:21.264Z,98184.96
2018-09-13T15:26:50.273Z,98192.56
2018-09-13T15:29:19.222Z,98190.37
2018-09-13T15:31:48.104Z,98202.87
2018-09-13T15:34:17.223Z,98194.75
2018-09-13T15:36:46.246Z,98200.78
2018-09-13T15:39:15.168Z,98208.63
2018-09-13T15:41:44.113Z,98217.95
2018-09-13T15:44:13.021Z,98231.38
2018-09-13T15:46:42.821Z,98228.34
2018-09-13T15:49:13.425Z,98233.47
2018-09-13T15:51:42.543Z,98241.11
2018-09-13T15:54:11.848Z,98245.66
2018-09-13T15:56:40.869Z,98259.45
2018-09-13T15:59:10.118Z,98264.31
2018-09-13T16:01:39.554Z,98272.74
2018-09-13T16:04:08.339Z,98271.80
2018-09-13T16:06:38.050Z,98270.64
2018-09-13T16:09:08.658Z,98270.44
2018-09-13T16:11:37.848Z,98270.05
2018-09-13T16:14:07.740Z,98269.95
2018-09-13T16:16:36.589Z,98262.55
2018-09-13T16:19:06.063Z,98260.37
2018-09-13T16:21:35.704Z,98261.29
2018-09-13T16:24:04.634Z,98260.70
2018-09-13T16:26:34.071Z,98268.97
2018-09-13T16:29:02.954Z,98281.51
2018-09-13T16:31:32.157Z,98284.95
2018-09-13T16:34:01.314Z,98286.16
2018-09-13T16:36:31.323Z,98289.61
2018-09-13T16:39:08.613Z,98290.45
2018-09-13T16:41:42.855Z,98288.75
2018-09-13T16:44:17.549Z,98288.60
2018-09-13T16:46:51.645Z,98288.48
2018-09-13T16:49:20.929Z,98290.97
2018-09-13T16:51:50.230Z,98286.55
2018-09-13T16:54:19.464Z,98288.78
2018-09-13T16:56:48.657Z,98286.41
2018-09-13T16:59:17.885Z,98291.57
2018-09-13T17:01:47.143Z,98291.09
2018-09-13T17:04:16.403Z,98286.73
2018-09-13T17:06:45.572Z,98288.50
2018-09-13T17:09:14.482Z,98285.66
2018-09-13T17:11:43.275Z,98288.95
2018-09-13T17:14:12.277Z,98292.17
2018-09-13T17:16:41.141Z,98299.95
2018-09-13T17:19:10.229Z,98296.67
2018-09-13T17:21:39.036Z,98295.11
2018-09-13T17:24:08.261Z,98294.56
2018-09-13T17:26:37.503Z,98304.86
2018-09-13T17:29:06.623Z,98305.74
2018-09-13T17:31:35.833Z,98306.00
2018-09-13T17:34:05.065Z,98313.08
2018-09-13T17:36:34.097Z,98308.05
2018-09-13T17:39:03.762Z,98307.94
2018-09-13T17:41:32.833Z,98320.35
2018-09-13T17:44:01.920Z,98315.10
2018-09-13T17:46:31.149Z,98308.14
2018-09-13T17:49:00.297Z,98300.95
2018-09-13T17:51:29.404Z,98296.28
2018-09-13T17:53:59.173Z,98297.56
2018-09-13T17:56:28.102Z,98292.88
2018-09-13T17:58:57.420Z,98299.38
2018-09-13T18:01:26.535Z,98296.09
2018-09-13T18:03:55.648Z,98298.91
2018-09-13T18:06:24.695Z,98296.52
2018-09-13T18:08:54.163Z,98291.16
2018-09-13T18:11:23.124Z,98297.19
2018-09-13T18:13:52.205Z,98304.73
2018-09-13T18:16:21.019Z,98298.91
2018-09-13T18:18:50.229Z,98299.13
2018-09-13T18:21:19.425Z,98301.61
2018-09-13T18:23:48.624Z,98298.33
2018-09-13T18:26:17.785Z,98302.66
2018-09-13T18:28:46.918Z,98301.05
2018-09-13T18:31:16.423Z,98304.50
2018-09-13T18:33:45.514Z,98297.16
2018-09-13T18:36:14.680Z,98312.52
2018-09-13T18:38:43.988Z,98308.23
2018-09-13T18:41:13.141Z,98313.66
2018-09-13T18:43:42.836Z,98310.13
2018-09-13T18:46:12.575Z,98322.42
2018-09-13T18:48:41.491Z,98321.12
2018-09-13T18:51:10.989Z,98322.21
2018-09-13T18:53:40.555Z,98334.01
2018-09-13T18:56:09.475Z,98335.25
2018-09-13T18:58:38.522Z,98336.92
2018-09-13T19:01:07.605Z,98331.03
2018-09-13T19:03:36.932Z,98312.28
2018-09-13T19:06:06.414Z,98329.02
2018-09-13T19:08:35.557Z,98331.30
2018-09-13T19:11:04.810Z,98333.27
2018-09-13T19:13:33.981Z,98330.22
2018-09-13T19:16:03.409Z,98334.16
2018-09-13T19:18:32.464Z,98332.86
2018-09-13T19:21:01.704Z,98337.63
2018-09-13T19:23:30.926Z,98331.13
2018-09-13T19:26:00.000Z,98337.95
2018-09-13T19:28:29.067Z,98341.55
2018-09-13T19:30:58.613Z,98353.41
2018-09-13T19:33:27.605Z,98351.61
2018-09-13T19:35:56.581Z,98355.58
2018-09-13T19:38:25.801Z,98365.67
2018-09-13T19:40:54.665Z,98367.09
2018-09-13T19:43:23.834Z,98369.73
2018-09-13T19:45:52.847Z,98368.72
2018-09-13T19:48:22.076Z,98368.63
2018-09-13T19:50:51.514Z,98365.89
2018-09-13T19:53:21.483Z,98365.59
2018-09-13T19:55:50.796Z,98353.30
2018-09-13T19:58:19.952Z,98360.38
2018-09-13T20:00:50.432Z,98348.15
2018-09-13T20:03:19.271Z,98353.77
2018-09-13T20:05:48.729Z,98358.64
2018-09-13T20:08:17.885Z,98357.02
2018-09-13T20:10:46.860Z,98353.75
2018-09-13T20:13:16.330Z,98368.59
2018-09-13T20:15:46.051Z,98369.62
2018-09-13T20:18:15.867Z,98364.97
2018-09-13T20:20:45.266Z,98363.82
2018-09-13T20:23:14.132Z,98373.66
2018-09-13T20:25:43.226Z,98375.88
2018-09-13T20:28:12.350Z,98381.90
2018-09-13T20:30:42.030Z,98374.18
2018-09-13T20:33:11.045Z,98377.29
2018-09-13T20:35:40.236Z,98373.06
2018-09-13T20:38:09.309Z,98366.55
2018-09-13T20:40:38.566Z,98354.56
2018-09-13T20:43:07.875Z,98374.43
2018-09-13T20:45:36.886Z,98370.80
2018-09-13T20:48:05.601Z,98377.08
2018-09-13T20:50:34.617Z,98375.38
2018-09-13T20:53:04.406Z,98381.92
2018-09-13T20:55:33.980Z,98385.94
2018-09-13T20:58:03.270Z,98393.52
2018-09-13T21:00:32.548Z,98391.03
2018-09-13T21:03:01.706Z,98393.54
2018-09-13T21:05:30.638Z,98389.45
2018-09-13T21:07:59.380Z,98383.41
2018-09-13T21:10:28.320Z,98385.47
2018-09-13T21:12:58.151Z,98387.67
2018-09-13T21:15:27.894Z,98385.66
2018-09-13T21:17:56.912Z,98381.19
2018-09-13T21:20:26.285Z,98381.80
2018-09-13T21:22:55.020Z,98380.81
2018-09-13T21:25:23.904Z,98388.56
2018-09-13T21:27:53.364Z,98372.61
2018-09-13T21:30:22.345Z,98374.19
2018-09-13T21:32:51.304Z,98375.48
2018-09-13T21:35:20.796Z,98373.59
2018-09-13T21:37:49.790Z,98377.92
2018-09-13T21:40:19.394Z,98384.76
2018-09-13T21:42:48.300Z,98383.11
2018-09-13T21:45:17.145Z,98379.38
2018-09-13T21:47:46.739Z,98381.62
2018-09-13T21:50:15.459Z,98389.41
2018-09-13T21:52:44.241Z,98383.48
2018-09-13T21:55:13.041Z,98387.63
2018-09-13T21:57:42.615Z,98385.80
2018-09-13T22:00:12.787Z,98384.13
2018-09-13T22:02:42.021Z,98387.28
2018-09-13T22:05:11.495Z,98387.75
2018-09-13T22:07:40.696Z,98382.18
2018-09-13T22:10:09.645Z,98387.81
2018-09-13T22:12:38.481Z,98387.75
2018-09-13T22:15:08.104Z,98390.16
2018-09-13T22:17:37.947Z,98396.31
2018-09-13T22:20:07.561Z,98397.53
2018-09-13T22:22:37.111Z,98385.27
2018-09-13T22:25:36.855Z,98387.52
2018-09-13T22:28:05.876Z,98397.05
2018-09-13T22:30:34.735Z,98392.48
2018-09-13T22:33:04.396Z,98379.16
2018-09-13T22:35:33.095Z,98390.87
2018-09-13T22:38:02.299Z,98385.09
2018-09-13T22:40:31.711Z,98394.88
2018-09-13T22:43:00.716Z,98388.40
2018-09-13T22:45:30.211Z,98389.98
2018-09-13T22:47:59.396Z,98388.55
2018-09-13T22:50:28.386Z,98388.62
2018-09-13T22:52:58.320Z,98391.45
2018-09-13T22:55:28.786Z,98390.23
2018-09-13T22:57:57.437Z,98391.59
2018-09-13T23:00:26.288Z,98397.11
2018-09-13T23:02:55.147Z,98395.80
2018-09-13T23:05:24.771Z,98396.53
2018-09-13T23:07:54.046Z,98399.42
2018-09-13T23:10:23.229Z,98403.52
2018-09-13T23:12:52.037Z,98401.27
2018-09-13T23:15:21.768Z,98404.80
2018-09-13T23:17:50.598Z,98406.90
2018-09-13T23:20:20.138Z,98402.73
2018-09-13T23:22:49.520Z,98404.23
2018-09-13T23:25:19.197Z,98404.92
2018-09-13T23:27:47.950Z,98403.56
2018-09-13T23:30:16.907Z,98400.25
2018-09-13T23:32:46.157Z,98403.20
2018-09-13T23:35:15.535Z,98408.41
2018-09-13T23:37:44.621Z,98403.22
2018-09-13T23:40:13.677Z,98403.22
2018-09-13T23:42:42.227Z,98412.27
2018-09-13T23:45:11.615Z,98413.16
2018-09-13T23:47:41.585Z,98408.56
2018-09-13T23:50:10.795Z,98422.03
2018-09-13T23:52:39.590Z,98411.69
2018-09-13T23:55:08.429Z,98412.16
2018-09-13T23:57:37.342Z,98411.20
